Terminal Aerodrome Forecast
Issued by NWS

Home | Current Version | Previous Version | Text Only | Print | Product List | Glossary On
Versions: 1 2 3 4 5 6 7 8 9 10 11 12 13 14 15 16 17 18
000
FTUS43 KILX 032300 RRA
TAFDEC
TAF
KDEC 032343Z 0400/0424 27010KT 5SM BR OVC007
     FM040200 29010KT 4SM BR OVC015
     FM040400 29010KT P6SM OVC025
     FM040600 32010G18KT P6SM OVC025
     FM041300 33012G20KT P6SM SCT025 BKN120=

USA.gov is the U.S. government's official web portal to all federal, state and local government web resources and services.